KBFL

Meadows Field Airport

Bakersfield, California, USA
METAR KBFL 231054Z AUTO 12003KT 10SM CLR 14/04 A2994 RMK AO2 SLP133 T01440044
Observed Flight Rules
Oct-23 @ 10:54 UTC (an hour ago) Visual Flight Rules
Wind Visibility Clouds
120° at 3 knots 10 miles
  • Clear skies
Temperatures Readings
Current 14°C / 57°F
Dewpoint 4°C / 39°F
Humidity 51%
Altimeter 29.94" Hg
Pressure 1013.3 hPa
Elevation 151
METAR KBFL 231054Z AUTO 12003KT 10SM CLR 14/04 A2994 RMK AO2 SLP133 T01440044
Observed Flight Rules
Oct-23 @ 10:54 UTC
(an hour ago)
VFR
Wind Visibility
120° at 3 knots 10 miles
Clouds
  • Clear skies
Temperature Dewpoint
14°C / 57°F 4°C / 39°F
Humidity Altimeter Pressure
51% 29.94" Hg 1013.3 hPa